createdAt,value
2023-03-24T00:00:29.097Z,8.38
2023-03-24T00:03:17.246Z,12.30
2023-03-24T00:06:07.239Z,9.05
2023-03-24T00:08:53.766Z,9.63
2023-03-24T00:11:40.338Z,8.85
2023-03-24T00:14:30.520Z,10.23
2023-03-24T00:17:17.387Z,8.65
2023-03-24T00:20:12.391Z,8.77
2023-03-24T00:23:00.211Z,8.88
2023-03-24T00:25:49.516Z,7.60
2023-03-24T00:28:37.606Z,6.22
2023-03-24T00:31:24.477Z,8.85
2023-03-24T00:34:11.353Z,8.23
2023-03-24T00:36:57.599Z,8.07
2023-03-24T00:39:45.819Z,12.02
2023-03-24T00:42:33.879Z,7.57
2023-03-24T00:45:23.665Z,11.18
2023-03-24T00:48:11.201Z,7.10
2023-03-24T00:50:57.984Z,9.18
2023-03-24T00:53:44.696Z,11.40
2023-03-24T00:56:37.600Z,7.50
2023-03-24T00:59:24.482Z,6.93
2023-03-24T01:02:11.979Z,7.05
2023-03-24T01:05:00.162Z,7.22
2023-03-24T01:07:46.612Z,8.15
2023-03-24T01:10:35.075Z,8.90
2023-03-24T01:13:25.330Z,9.80
2023-03-24T01:16:11.686Z,6.93
2023-03-24T01:18:57.933Z,6.68
2023-03-24T01:21:44.442Z,6.20
2023-03-24T01:24:31.156Z,7.40
2023-03-24T01:27:17.747Z,7.72
2023-03-24T01:30:06.644Z,11.32
2023-03-24T01:32:53.966Z,8.27
2023-03-24T01:35:40.593Z,8.23
2023-03-24T01:38:26.926Z,8.52
2023-03-24T01:41:13.402Z,7.00
2023-03-24T01:44:00.665Z,6.70
2023-03-24T01:46:48.384Z,8.90
2023-03-24T01:49:39.014Z,5.47
2023-03-24T01:52:28.530Z,5.38
2023-03-24T01:55:19.890Z,7.82
2023-03-24T01:58:07.648Z,6.70
2023-03-24T02:01:15.850Z,7.55
2023-03-24T02:07:19.569Z,10.20
2023-03-24T02:10:10.326Z,6.60
2023-03-24T02:12:57.004Z,7.00
2023-03-24T02:15:54.085Z,9.75
2023-03-24T02:18:48.186Z,12.38
2023-03-24T02:21:59.736Z,11.32
2023-03-24T02:25:10.600Z,6.30
2023-03-24T02:28:32.046Z,10.63
2023-03-24T02:32:09.766Z,5.70
2023-03-24T02:35:32.057Z,6.85
2023-03-24T02:38:46.616Z,4.78
2023-03-24T02:41:43.381Z,3.92
2023-03-24T02:44:36.072Z,5.00
2023-03-24T02:47:30.847Z,2.95
2023-03-24T02:50:27.766Z,3.47
2023-03-24T02:53:21.431Z,4.28
2023-03-24T02:56:37.456Z,4.07
2023-03-24T02:59:37.402Z,3.80
2023-03-24T03:02:33.594Z,4.40
2023-03-24T03:05:24.979Z,11.63
2023-03-24T03:08:17.256Z,6.72
2023-03-24T03:11:08.803Z,9.85
2023-03-24T03:14:01.003Z,3.35
2023-03-24T03:16:53.359Z,9.02
2023-03-24T03:19:42.469Z,9.00
2023-03-24T03:25:23.720Z,6.45
2023-03-24T03:28:12.951Z,8.77
2023-03-24T03:31:05.728Z,11.40
2023-03-24T03:33:55.306Z,11.05
2023-03-24T03:36:49.808Z,11.05
2023-03-24T03:39:42.461Z,11.73
2023-03-24T03:42:30.438Z,11.30
2023-03-24T03:45:16.872Z,13.88
2023-03-24T03:48:05.420Z,11.82
2023-03-24T03:50:59.835Z,11.27
2023-03-24T03:53:58.177Z,11.07
2023-03-24T03:56:45.121Z,8.20
2023-03-24T03:59:41.306Z,19.75
2023-03-24T04:02:44.914Z,15.48
2023-03-24T04:05:36.169Z,11.25
2023-03-24T04:08:45.931Z,20.17
2023-03-24T04:11:55.292Z,11.75
2023-03-24T04:15:17.351Z,17.25
2023-03-24T04:18:53.107Z,14.88
2023-03-24T04:22:03.053Z,21.70
2023-03-24T04:24:54.705Z,21.25
2023-03-24T04:27:52.082Z,19.00
2023-03-24T04:30:44.775Z,14.10
2023-03-24T04:33:42.529Z,20.35
2023-03-24T04:36:42.115Z,20.63
2023-03-24T04:39:50.448Z,23.95
2023-03-24T04:42:39.494Z,24.70
2023-03-24T04:45:26.498Z,15.48
2023-03-24T04:48:32.075Z,24.35
2023-03-24T04:51:30.894Z,20.08
2023-03-24T04:54:24.534Z,19.50
2023-03-24T04:57:18.654Z,21.80
2023-03-24T05:00:10.496Z,21.52
2023-03-24T05:02:56.832Z,27.77
2023-03-24T05:05:48.259Z,26.45
2023-03-24T05:08:34.475Z,20.15
2023-03-24T05:11:21.543Z,27.55
2023-03-24T05:14:19.800Z,22.65
2023-03-24T05:17:06.570Z,26.80
2023-03-24T05:19:53.095Z,21.08
2023-03-24T05:22:41.005Z,28.42
2023-03-24T05:25:27.953Z,30.50
2023-03-24T05:28:14.354Z,20.98
2023-03-24T05:31:02.355Z,25.45
2023-03-24T05:34:04.096Z,24.85
2023-03-24T05:36:53.438Z,23.63
2023-03-24T05:39:41.821Z,18.25
2023-03-24T05:42:40.830Z,25.13
2023-03-24T05:45:29.422Z,28.05
2023-03-24T05:48:18.447Z,21.05
2023-03-24T05:51:25.238Z,22.75
2023-03-24T05:54:22.143Z,18.98
2023-03-24T05:57:14.142Z,23.27
2023-03-24T06:00:17.038Z,22.70
2023-03-24T06:03:20.293Z,23.75
2023-03-24T06:06:16.876Z,23.45
2023-03-24T06:09:05.060Z,13.85
2023-03-24T06:11:51.737Z,16.20
2023-03-24T06:14:48.437Z,13.38
2023-03-24T06:17:37.373Z,17.92
2023-03-24T06:20:31.205Z,24.30
2023-03-24T06:23:25.813Z,20.27
2023-03-24T06:26:31.783Z,19.17
2023-03-24T06:29:19.784Z,19.20
2023-03-24T06:32:06.839Z,16.17
2023-03-24T06:34:59.649Z,23.52
2023-03-24T06:40:47.885Z,14.70
2023-03-24T06:43:34.901Z,20.25
2023-03-24T06:46:21.574Z,17.75
2023-03-24T06:49:08.714Z,20.13
2023-03-24T06:51:55.581Z,16.25
2023-03-24T06:54:44.670Z,15.52
2023-03-24T06:57:30.833Z,15.63
2023-03-24T07:00:45.169Z,20.35
2023-03-24T07:03:54.865Z,17.60
2023-03-24T07:07:27.796Z,19.98
2023-03-24T07:10:19.431Z,16.77
2023-03-24T07:13:06.069Z,24.50
2023-03-24T07:15:54.750Z,17.42
2023-03-24T07:18:42.145Z,23.20
2023-03-24T07:21:29.016Z,16.50
2023-03-24T07:24:15.557Z,17.02
2023-03-24T07:27:14.488Z,17.08
2023-03-24T07:30:00.885Z,14.98
2023-03-24T07:32:58.138Z,19.83
2023-03-24T07:35:45.112Z,23.05
2023-03-24T07:38:32.079Z,18.80
2023-03-24T07:41:24.554Z,18.95
2023-03-24T07:44:17.588Z,16.80
2023-03-24T07:47:11.259Z,15.13
2023-03-24T07:49:57.730Z,17.33
2023-03-24T07:52:48.768Z,16.02
2023-03-24T07:55:37.830Z,21.02
2023-03-24T07:58:38.161Z,27.45
2023-03-24T08:01:56.112Z,16.13
2023-03-24T08:05:19.510Z,16.08
2023-03-24T08:08:14.889Z,20.58
2023-03-24T08:11:01.357Z,17.02
2023-03-24T08:13:47.547Z,19.45
2023-03-24T08:16:34.201Z,15.80
2023-03-24T08:19:21.810Z,13.60
2023-03-24T08:22:08.170Z,19.27
2023-03-24T08:24:54.669Z,21.63
2023-03-24T08:27:44.680Z,21.25
2023-03-24T08:30:31.590Z,21.50
2023-03-24T08:33:18.467Z,12.43
2023-03-24T08:36:06.994Z,16.77
2023-03-24T08:38:54.497Z,17.33
2023-03-24T08:41:40.900Z,17.85
2023-03-24T08:44:27.354Z,15.52
2023-03-24T08:47:16.436Z,17.30
2023-03-24T08:50:03.085Z,15.20
2023-03-24T08:52:51.049Z,13.13
2023-03-24T08:55:41.680Z,13.57
2023-03-24T08:58:28.297Z,14.02
2023-03-24T09:01:14.873Z,18.98
2023-03-24T09:04:01.184Z,14.27
2023-03-24T09:06:47.498Z,16.60
2023-03-24T09:09:35.667Z,11.93
2023-03-24T09:12:22.252Z,17.60
2023-03-24T09:15:12.289Z,14.85
2023-03-24T09:17:59.490Z,15.55
2023-03-24T09:20:46.958Z,14.82
2023-03-24T09:23:33.747Z,10.65
2023-03-24T09:26:23.037Z,8.65
2023-03-24T09:29:09.321Z,12.38
2023-03-24T09:31:56.937Z,10.82
2023-03-24T09:34:43.160Z,9.40
2023-03-24T09:37:30.701Z,14.93
2023-03-24T09:40:21.772Z,9.90
2023-03-24T09:43:19.927Z,12.25
2023-03-24T09:46:12.625Z,8.77
2023-03-24T09:48:59.353Z,14.50
2023-03-24T09:51:47.092Z,12.02
2023-03-24T09:54:43.207Z,11.05
2023-03-24T09:57:36.182Z,18.80
2023-03-24T10:00:27.893Z,20.02
2023-03-24T10:03:20.947Z,20.25
2023-03-24T10:06:14.042Z,15.07
2023-03-24T10:09:16.937Z,11.82
2023-03-24T10:12:18.990Z,13.85
2023-03-24T10:15:30.873Z,14.15
2023-03-24T10:18:32.375Z,11.60
2023-03-24T10:21:22.669Z,14.82
2023-03-24T10:24:17.926Z,17.00
2023-03-24T10:27:11.141Z,9.70
2023-03-24T10:30:04.225Z,13.57
2023-03-24T10:32:50.567Z,14.80
2023-03-24T10:35:43.643Z,13.10
2023-03-24T10:38:30.317Z,14.95
2023-03-24T10:41:19.011Z,11.18
2023-03-24T10:44:06.645Z,13.40
2023-03-24T10:46:56.143Z,10.68
2023-03-24T10:49:54.286Z,13.52
2023-03-24T10:52:43.773Z,10.63
2023-03-24T10:55:32.313Z,10.40
2023-03-24T10:58:27.340Z,11.63
2023-03-24T11:01:24.784Z,15.85
2023-03-24T11:04:15.193Z,12.20
2023-03-24T11:07:06.079Z,13.05
2023-03-24T11:10:01.815Z,8.38
2023-03-24T11:13:02.570Z,11.00
2023-03-24T11:15:55.827Z,14.32
2023-03-24T11:18:56.528Z,14.45
2023-03-24T11:21:43.963Z,8.32
2023-03-24T11:24:31.086Z,7.70
2023-03-24T11:27:19.930Z,11.02
2023-03-24T11:30:08.234Z,9.60
2023-03-24T11:32:55.783Z,13.70
2023-03-24T11:35:43.011Z,8.82
2023-03-24T11:38:32.288Z,12.02
2023-03-24T11:41:22.940Z,12.38
2023-03-24T11:44:18.997Z,11.68
2023-03-24T11:47:10.654Z,13.55
2023-03-24T11:50:14.600Z,12.32
2023-03-24T11:53:07.684Z,13.13
2023-03-24T11:56:00.736Z,11.23
2023-03-24T11:58:49.068Z,11.70
2023-03-24T12:01:39.496Z,15.55
2023-03-24T12:04:36.504Z,17.15
2023-03-24T12:07:41.181Z,9.68
2023-03-24T12:10:39.193Z,11.50
2023-03-24T12:13:35.060Z,9.43
2023-03-24T12:16:44.619Z,11.77
2023-03-24T12:19:45.709Z,9.77
2023-03-24T12:22:42.291Z,11.93
2023-03-24T12:25:49.443Z,7.13
2023-03-24T12:28:50.070Z,7.20
2023-03-24T12:32:05.640Z,6.72
2023-03-24T12:35:11.392Z,8.65
2023-03-24T12:38:13.401Z,14.80
2023-03-24T12:41:19.601Z,7.57
2023-03-24T12:44:23.970Z,7.95
2023-03-24T12:47:29.161Z,8.43
2023-03-24T12:50:27.688Z,10.00
2023-03-24T12:53:26.604Z,13.55
2023-03-24T12:56:18.001Z,9.98
2023-03-24T12:59:11.805Z,8.35
2023-03-24T13:02:10.465Z,16.45
2023-03-24T13:05:04.864Z,9.63
2023-03-24T13:07:57.953Z,14.68
2023-03-24T13:10:48.481Z,7.95
2023-03-24T13:13:39.371Z,9.90
2023-03-24T13:16:31.122Z,17.80
2023-03-24T13:19:21.796Z,7.28
2023-03-24T13:25:03.896Z,11.60
2023-03-24T13:27:55.205Z,12.05
2023-03-24T13:30:44.557Z,10.75
2023-03-24T13:33:37.551Z,7.68
2023-03-24T13:36:36.214Z,6.28
2023-03-24T13:39:27.951Z,5.93
2023-03-24T13:42:30.548Z,11.88
2023-03-24T13:45:27.821Z,9.10
2023-03-24T13:48:27.372Z,8.18
2023-03-24T13:51:19.023Z,1.42
2023-03-24T13:54:08.125Z,6.07
2023-03-24T13:57:03.315Z,8.90
2023-03-24T14:00:08.116Z,6.60
2023-03-24T14:02:58.193Z,8.80
2023-03-24T14:05:59.712Z,10.05
2023-03-24T14:09:05.789Z,6.32
2023-03-24T14:12:21.539Z,8.73
2023-03-24T14:15:18.556Z,10.75
2023-03-24T14:18:42.151Z,15.88
2023-03-24T14:21:36.512Z,9.38
2023-03-24T14:24:31.055Z,3.97
2023-03-24T14:27:37.631Z,9.85
2023-03-24T14:30:28.203Z,10.10
2023-03-24T14:33:26.543Z,6.53
2023-03-24T14:36:20.584Z,6.60
2023-03-24T14:39:26.174Z,4.95
2023-03-24T14:42:29.835Z,6.78
2023-03-24T14:46:03.766Z,11.85
2023-03-24T14:48:57.307Z,7.45
2023-03-24T14:51:48.359Z,9.48
2023-03-24T14:54:38.793Z,12.43
2023-03-24T15:00:21.616Z,6.30
2023-03-24T15:03:19.818Z,6.03
2023-03-24T15:06:14.692Z,7.35
2023-03-24T15:09:06.730Z,8.98
2023-03-24T15:11:53.811Z,15.15
2023-03-24T15:14:40.467Z,9.02
2023-03-24T15:17:28.271Z,11.05
2023-03-24T15:20:23.225Z,12.63
2023-03-24T15:23:09.949Z,6.53
2023-03-24T15:25:56.659Z,12.55
2023-03-24T15:28:43.357Z,11.05
2023-03-24T15:31:33.495Z,17.00
2023-03-24T15:34:29.852Z,16.17
2023-03-24T15:37:24.208Z,9.50
2023-03-24T15:40:32.521Z,11.35
2023-03-24T15:43:22.124Z,10.80
2023-03-24T15:46:23.114Z,14.55
2023-03-24T15:49:21.017Z,9.73
2023-03-24T15:52:28.647Z,13.73
2023-03-24T15:55:25.536Z,14.23
2023-03-24T15:58:23.628Z,10.27
2023-03-24T16:01:14.158Z,9.65
2023-03-24T16:04:02.065Z,11.75
2023-03-24T16:06:53.064Z,13.23
2023-03-24T16:09:41.422Z,12.00
2023-03-24T16:12:27.917Z,13.70
2023-03-24T16:15:14.566Z,12.27
2023-03-24T16:18:01.357Z,12.82
2023-03-24T16:20:51.801Z,15.88
2023-03-24T16:23:38.137Z,6.32
2023-03-24T16:26:27.738Z,10.45
2023-03-24T16:29:17.175Z,9.57
2023-03-24T16:32:04.215Z,10.85
2023-03-24T16:34:51.014Z,22.23
2023-03-24T16:37:37.778Z,18.98
2023-03-24T16:40:32.651Z,10.50
2023-03-24T16:43:21.181Z,8.45
2023-03-24T16:46:12.768Z,6.80
2023-03-24T16:48:59.552Z,7.63
2023-03-24T16:51:46.336Z,6.22
2023-03-24T16:54:32.682Z,15.75
2023-03-24T16:57:19.182Z,9.73
2023-03-24T17:00:11.005Z,10.18
2023-03-24T17:02:59.845Z,10.50
2023-03-24T17:05:48.731Z,12.32
2023-03-24T17:08:37.918Z,13.02
2023-03-24T17:11:28.001Z,14.57
2023-03-24T17:14:14.948Z,13.95
2023-03-24T17:17:04.263Z,16.20
2023-03-24T17:19:53.481Z,17.05
2023-03-24T17:22:44.066Z,14.13
2023-03-24T17:25:30.540Z,7.88
2023-03-24T17:28:18.020Z,8.82
2023-03-24T17:31:05.233Z,14.25
2023-03-24T17:33:53.024Z,18.15
2023-03-24T17:36:40.918Z,15.07
2023-03-24T17:39:27.298Z,12.10
2023-03-24T17:42:13.305Z,16.92
2023-03-24T17:44:59.672Z,19.77
2023-03-24T17:47:47.343Z,22.70
2023-03-24T17:50:35.084Z,14.05
2023-03-24T17:53:25.624Z,12.95
2023-03-24T17:56:12.267Z,15.02
2023-03-24T17:58:59.721Z,11.25
2023-03-24T18:01:47.146Z,14.88
2023-03-24T18:04:34.157Z,15.48
2023-03-24T18:07:22.999Z,10.50
2023-03-24T18:10:10.459Z,12.43
2023-03-24T18:12:56.751Z,14.63
2023-03-24T18:15:43.766Z,7.47
2023-03-24T18:18:30.261Z,12.82
2023-03-24T18:21:16.480Z,8.90
2023-03-24T18:24:06.376Z,7.38
2023-03-24T18:26:52.781Z,11.13
2023-03-24T18:29:41.150Z,12.20
2023-03-24T18:32:28.301Z,9.30
2023-03-24T18:35:17.065Z,11.50
2023-03-24T18:38:03.660Z,10.57
2023-03-24T18:40:59.421Z,8.27
2023-03-24T18:43:48.229Z,11.13
2023-03-24T18:46:35.013Z,12.20
2023-03-24T18:49:24.024Z,12.98
2023-03-24T18:52:10.700Z,6.43
2023-03-24T18:54:57.131Z,10.45
2023-03-24T18:57:44.816Z,7.20
2023-03-24T19:00:31.333Z,12.15
2023-03-24T19:03:18.492Z,11.00
2023-03-24T19:06:06.966Z,9.02
2023-03-24T19:08:54.215Z,8.05
2023-03-24T19:11:43.315Z,6.97
2023-03-24T19:14:31.528Z,6.65
2023-03-24T19:17:17.760Z,9.00
2023-03-24T19:20:07.328Z,10.13
2023-03-24T19:22:54.462Z,7.28
2023-03-24T19:25:41.601Z,14.10
2023-03-24T19:28:30.365Z,10.27
2023-03-24T19:31:20.543Z,6.07
2023-03-24T19:34:07.262Z,8.70
2023-03-24T19:36:56.664Z,5.43
2023-03-24T19:39:43.202Z,8.68
2023-03-24T19:42:33.257Z,8.25
2023-03-24T19:45:20.397Z,9.95
2023-03-24T19:48:08.275Z,5.93
2023-03-24T19:50:55.776Z,7.97
2023-03-24T19:53:42.311Z,9.55
2023-03-24T19:56:28.807Z,8.52
2023-03-24T19:59:19.707Z,4.93
2023-03-24T20:02:06.159Z,7.53
2023-03-24T20:04:55.310Z,6.65
2023-03-24T20:07:41.945Z,7.10
2023-03-24T20:10:28.619Z,6.15
2023-03-24T20:13:14.969Z,7.35
2023-03-24T20:16:01.662Z,6.13
2023-03-24T20:18:48.158Z,14.07
2023-03-24T20:21:36.067Z,10.35
2023-03-24T20:24:22.573Z,16.38
2023-03-24T20:27:09.102Z,9.25
2023-03-24T20:29:55.691Z,9.80
2023-03-24T20:32:42.108Z,9.45
2023-03-24T20:35:28.980Z,9.18
2023-03-24T20:38:16.950Z,6.50
2023-03-24T20:41:05.953Z,9.68
2023-03-24T20:43:52.242Z,8.43
2023-03-24T20:46:38.464Z,7.82
2023-03-24T20:49:25.864Z,9.70
2023-03-24T20:52:14.255Z,10.40
2023-03-24T20:55:05.577Z,9.13
2023-03-24T20:57:51.938Z,7.65
2023-03-24T21:00:46.056Z,9.05
2023-03-24T21:03:32.159Z,6.60
2023-03-24T21:06:20.074Z,3.92
2023-03-24T21:09:07.048Z,13.73
2023-03-24T21:11:55.088Z,7.60
2023-03-24T21:14:42.421Z,9.77
2023-03-24T21:17:32.048Z,9.85
2023-03-24T21:20:18.870Z,8.02
2023-03-24T21:23:09.468Z,10.43
2023-03-24T21:25:55.780Z,5.68
2023-03-24T21:28:44.534Z,6.63
2023-03-24T21:31:33.636Z,20.73
2023-03-24T21:34:20.281Z,12.80
2023-03-24T21:37:09.789Z,7.63
2023-03-24T21:39:56.168Z,12.07
2023-03-24T21:42:42.991Z,10.07
2023-03-24T21:45:32.419Z,11.30
2023-03-24T21:48:18.952Z,13.27
2023-03-24T21:51:05.956Z,7.95
2023-03-24T21:53:55.455Z,13.88
2023-03-24T21:56:41.952Z,10.27
2023-03-24T21:59:28.598Z,14.70
2023-03-24T22:02:18.156Z,7.50
2023-03-24T22:05:04.426Z,14.95
2023-03-24T22:07:51.440Z,11.10
2023-03-24T22:10:42.377Z,15.82
2023-03-24T22:13:29.755Z,10.77
2023-03-24T22:16:16.177Z,14.75
2023-03-24T22:19:03.799Z,6.10
2023-03-24T22:21:57.046Z,9.88
2023-03-24T22:24:43.482Z,11.15
2023-03-24T22:27:30.228Z,5.45
2023-03-24T22:30:16.733Z,9.15
2023-03-24T22:33:03.212Z,9.20
2023-03-24T22:35:55.305Z,10.52
2023-03-24T22:38:42.425Z,7.75
2023-03-24T22:41:29.059Z,10.98
2023-03-24T22:44:15.449Z,11.40
2023-03-24T22:47:02.487Z,13.13
2023-03-24T22:49:48.943Z,9.50
2023-03-24T22:52:36.607Z,12.02
2023-03-24T22:55:22.689Z,7.53
2023-03-24T22:58:09.585Z,11.18
2023-03-24T23:00:57.566Z,7.57
2023-03-24T23:03:44.000Z,11.18
2023-03-24T23:06:30.969Z,8.35
2023-03-24T23:09:18.728Z,15.27
2023-03-24T23:12:06.001Z,15.20
2023-03-24T23:14:54.217Z,13.05
2023-03-24T23:17:40.260Z,11.32
2023-03-24T23:20:27.924Z,11.68
2023-03-24T23:23:15.227Z,12.30
2023-03-24T23:26:04.760Z,7.85
2023-03-24T23:28:51.649Z,12.27
2023-03-24T23:31:37.964Z,14.30
2023-03-24T23:34:25.773Z,9.95
2023-03-24T23:37:14.206Z,19.15
2023-03-24T23:40:05.204Z,12.38
2023-03-24T23:42:52.694Z,10.80
2023-03-24T23:45:39.002Z,11.45
2023-03-24T23:48:26.024Z,14.13
2023-03-24T23:51:13.022Z,13.77
2023-03-24T23:53:59.481Z,13.90
2023-03-24T23:56:46.974Z,15.20
2023-03-24T23:59:34.889Z,16.15
